sensor_id;sensor_type;location;lat;lon;timestamp;P1;durP1;ratioP1;P2;durP2;ratioP2
14619;SDS011;32125;48.518;9.050;2023-04-25T00:00:10;4.50;;;3.50;;
14619;SDS011;32125;48.518;9.050;2023-04-25T00:02:37;4.40;;;3.50;;
14619;SDS011;32125;48.518;9.050;2023-04-25T00:05:03;5.50;;;3.63;;
14619;SDS011;32125;48.518;9.050;2023-04-25T00:07:29;4.53;;;3.33;;
14619;SDS011;32125;48.518;9.050;2023-04-25T00:09:58;4.47;;;3.33;;
14619;SDS011;32125;48.518;9.050;2023-04-25T00:12:24;4.03;;;3.63;;
14619;SDS011;32125;48.518;9.050;2023-04-25T00:14:53;4.97;;;3.60;;
14619;SDS011;32125;48.518;9.050;2023-04-25T00:17:21;8.13;;;3.67;;
14619;SDS011;32125;48.518;9.050;2023-04-25T00:19:49;4.80;;;3.60;;
14619;SDS011;32125;48.518;9.050;2023-04-25T00:22:15;4.43;;;3.93;;
14619;SDS011;32125;48.518;9.050;2023-04-25T00:24:42;4.70;;;3.70;;
14619;SDS011;32125;48.518;9.050;2023-04-25T00:27:10;4.77;;;3.70;;
14619;SDS011;32125;48.518;9.050;2023-04-25T00:29:36;4.80;;;3.50;;
14619;SDS011;32125;48.518;9.050;2023-04-25T00:32:02;5.70;;;3.40;;
14619;SDS011;32125;48.518;9.050;2023-04-25T00:34:28;9.97;;;3.63;;
14619;SDS011;32125;48.518;9.050;2023-04-25T00:36:54;4.77;;;3.20;;
14619;SDS011;32125;48.518;9.050;2023-04-25T00:39:21;5.03;;;3.60;;
14619;SDS011;32125;48.518;9.050;2023-04-25T00:41:47;4.50;;;3.60;;
14619;SDS011;32125;48.518;9.050;2023-04-25T00:44:13;4.13;;;3.20;;
14619;SDS011;32125;48.518;9.050;2023-04-25T00:46:42;4.47;;;3.20;;
14619;SDS011;32125;48.518;9.050;2023-04-25T00:49:09;3.67;;;3.00;;
14619;SDS011;32125;48.518;9.050;2023-04-25T00:51:40;3.17;;;2.87;;
14619;SDS011;32125;48.518;9.050;2023-04-25T00:54:06;3.20;;;2.90;;
14619;SDS011;32125;48.518;9.050;2023-04-25T00:56:32;3.27;;;2.97;;
14619;SDS011;32125;48.518;9.050;2023-04-25T00:58:58;4.67;;;3.43;;
14619;SDS011;32125;48.518;9.050;2023-04-25T01:01:24;4.23;;;3.20;;
14619;SDS011;32125;48.518;9.050;2023-04-25T01:03:53;5.53;;;3.23;;
14619;SDS011;32125;48.518;9.050;2023-04-25T01:06:19;3.77;;;3.37;;
14619;SDS011;32125;48.518;9.050;2023-04-25T01:08:45;5.17;;;3.60;;
14619;SDS011;32125;48.518;9.050;2023-04-25T01:11:13;6.50;;;3.60;;
14619;SDS011;32125;48.518;9.050;2023-04-25T01:13:41;5.53;;;3.30;;
14619;SDS011;32125;48.518;9.050;2023-04-25T01:16:07;5.00;;;3.20;;
14619;SDS011;32125;48.518;9.050;2023-04-25T01:18:33;4.93;;;3.67;;
14619;SDS011;32125;48.518;9.050;2023-04-25T01:21:07;6.03;;;3.27;;
14619;SDS011;32125;48.518;9.050;2023-04-25T01:23:34;4.67;;;3.53;;
14619;SDS011;32125;48.518;9.050;2023-04-25T01:26:00;4.80;;;3.50;;
14619;SDS011;32125;48.518;9.050;2023-04-25T01:28:29;6.27;;;3.40;;
14619;SDS011;32125;48.518;9.050;2023-04-25T01:31:00;5.83;;;3.60;;
14619;SDS011;32125;48.518;9.050;2023-04-25T01:33:29;5.17;;;4.07;;
14619;SDS011;32125;48.518;9.050;2023-04-25T01:35:55;5.97;;;3.60;;
14619;SDS011;32125;48.518;9.050;2023-04-25T01:38:21;3.80;;;3.40;;
14619;SDS011;32125;48.518;9.050;2023-04-25T01:40:49;5.33;;;4.03;;
14619;SDS011;32125;48.518;9.050;2023-04-25T01:43:17;5.60;;;4.20;;
14619;SDS011;32125;48.518;9.050;2023-04-25T01:45:45;5.40;;;4.13;;
14619;SDS011;32125;48.518;9.050;2023-04-25T01:48:11;4.30;;;3.73;;
14619;SDS011;32125;48.518;9.050;2023-04-25T01:50:38;4.90;;;3.93;;
14619;SDS011;32125;48.518;9.050;2023-04-25T01:53:05;5.20;;;3.50;;
14619;SDS011;32125;48.518;9.050;2023-04-25T01:55:31;4.70;;;3.80;;
14619;SDS011;32125;48.518;9.050;2023-04-25T01:57:57;6.70;;;3.90;;
14619;SDS011;32125;48.518;9.050;2023-04-25T02:00:24;3.90;;;3.40;;
14619;SDS011;32125;48.518;9.050;2023-04-25T02:02:50;6.30;;;3.83;;
14619;SDS011;32125;48.518;9.050;2023-04-25T02:05:20;5.93;;;4.00;;
14619;SDS011;32125;48.518;9.050;2023-04-25T02:07:46;5.80;;;4.27;;
14619;SDS011;32125;48.518;9.050;2023-04-25T02:10:13;4.20;;;3.80;;
14619;SDS011;32125;48.518;9.050;2023-04-25T02:12:41;4.63;;;3.47;;
14619;SDS011;32125;48.518;9.050;2023-04-25T02:15:07;5.17;;;4.00;;
14619;SDS011;32125;48.518;9.050;2023-04-25T02:17:33;5.03;;;4.10;;
14619;SDS011;32125;48.518;9.050;2023-04-25T02:19:59;8.10;;;3.93;;
14619;SDS011;32125;48.518;9.050;2023-04-25T02:22:28;5.00;;;4.20;;
14619;SDS011;32125;48.518;9.050;2023-04-25T02:24:55;6.40;;;3.70;;
14619;SDS011;32125;48.518;9.050;2023-04-25T02:27:21;5.40;;;4.03;;
14619;SDS011;32125;48.518;9.050;2023-04-25T02:29:47;6.00;;;4.10;;
14619;SDS011;32125;48.518;9.050;2023-04-25T02:32:13;5.10;;;4.10;;
14619;SDS011;32125;48.518;9.050;2023-04-25T02:34:41;5.10;;;4.03;;
14619;SDS011;32125;48.518;9.050;2023-04-25T02:37:07;6.77;;;4.37;;
14619;SDS011;32125;48.518;9.050;2023-04-25T02:39:32;5.83;;;4.43;;
14619;SDS011;32125;48.518;9.050;2023-04-25T02:41:58;6.07;;;4.50;;
14619;SDS011;32125;48.518;9.050;2023-04-25T02:44:25;6.37;;;4.50;;
14619;SDS011;32125;48.518;9.050;2023-04-25T02:46:51;5.20;;;4.70;;
14619;SDS011;32125;48.518;9.050;2023-04-25T02:49:18;4.97;;;4.47;;
14619;SDS011;32125;48.518;9.050;2023-04-25T02:51:44;7.20;;;4.70;;
14619;SDS011;32125;48.518;9.050;2023-04-25T02:54:10;7.23;;;5.00;;
14619;SDS011;32125;48.518;9.050;2023-04-25T02:56:37;5.83;;;4.80;;
14619;SDS011;32125;48.518;9.050;2023-04-25T02:59:03;5.60;;;5.07;;
14619;SDS011;32125;48.518;9.050;2023-04-25T03:01:29;7.57;;;5.20;;
14619;SDS011;32125;48.518;9.050;2023-04-25T03:03:55;8.50;;;5.10;;
14619;SDS011;32125;48.518;9.050;2023-04-25T03:06:21;6.10;;;5.20;;
14619;SDS011;32125;48.518;9.050;2023-04-25T03:08:47;7.93;;;5.00;;
14619;SDS011;32125;48.518;9.050;2023-04-25T03:11:13;5.57;;;4.97;;
14619;SDS011;32125;48.518;9.050;2023-04-25T03:13:39;8.53;;;4.80;;
14619;SDS011;32125;48.518;9.050;2023-04-25T03:16:05;6.87;;;4.80;;
14619;SDS011;32125;48.518;9.050;2023-04-25T03:18:31;6.60;;;4.63;;
14619;SDS011;32125;48.518;9.050;2023-04-25T03:20:57;5.63;;;4.70;;
14619;SDS011;32125;48.518;9.050;2023-04-25T03:23:23;8.40;;;4.97;;
14619;SDS011;32125;48.518;9.050;2023-04-25T03:25:50;6.97;;;5.23;;
14619;SDS011;32125;48.518;9.050;2023-04-25T03:28:19;7.67;;;4.90;;
14619;SDS011;32125;48.518;9.050;2023-04-25T03:30:45;8.73;;;5.20;;
14619;SDS011;32125;48.518;9.050;2023-04-25T03:33:11;9.03;;;5.30;;
14619;SDS011;32125;48.518;9.050;2023-04-25T03:35:37;8.63;;;5.63;;
14619;SDS011;32125;48.518;9.050;2023-04-25T03:38:03;7.03;;;5.23;;
14619;SDS011;32125;48.518;9.050;2023-04-25T03:40:29;6.70;;;4.53;;
14619;SDS011;32125;48.518;9.050;2023-04-25T04:25:53;5.07;;;4.17;;
14619;SDS011;32125;48.518;9.050;2023-04-25T04:28:19;5.00;;;4.30;;
14619;SDS011;32125;48.518;9.050;2023-04-25T04:30:48;5.30;;;4.10;;
14619;SDS011;32125;48.518;9.050;2023-04-25T04:33:16;4.30;;;3.87;;
14619;SDS011;32125;48.518;9.050;2023-04-25T04:35:43;5.93;;;4.00;;
14619;SDS011;32125;48.518;9.050;2023-04-25T04:38:13;6.93;;;4.43;;
14619;SDS011;32125;48.518;9.050;2023-04-25T04:40:40;5.33;;;3.90;;
14619;SDS011;32125;48.518;9.050;2023-04-25T04:43:08;5.87;;;3.83;;
14619;SDS011;32125;48.518;9.050;2023-04-25T04:45:36;5.80;;;3.97;;
14619;SDS011;32125;48.518;9.050;2023-04-25T04:48:04;5.03;;;4.03;;
14619;SDS011;32125;48.518;9.050;2023-04-25T04:50:30;5.03;;;3.43;;
14619;SDS011;32125;48.518;9.050;2023-04-25T04:52:59;5.70;;;3.83;;
14619;SDS011;32125;48.518;9.050;2023-04-25T04:55:25;4.33;;;3.70;;
14619;SDS011;32125;48.518;9.050;2023-04-25T04:57:51;6.20;;;4.30;;
14619;SDS011;32125;48.518;9.050;2023-04-25T05:00:17;5.07;;;3.93;;
14619;SDS011;32125;48.518;9.050;2023-04-25T05:02:43;4.77;;;3.47;;
14619;SDS011;32125;48.518;9.050;2023-04-25T05:05:12;4.97;;;3.37;;
14619;SDS011;32125;48.518;9.050;2023-04-25T05:07:38;8.03;;;3.93;;
14619;SDS011;32125;48.518;9.050;2023-04-25T05:10:06;5.93;;;3.60;;
14619;SDS011;32125;48.518;9.050;2023-04-25T05:12:33;5.20;;;3.57;;
14619;SDS011;32125;48.518;9.050;2023-04-25T05:15:00;7.10;;;3.80;;
14619;SDS011;32125;48.518;9.050;2023-04-25T05:17:29;5.83;;;3.70;;
14619;SDS011;32125;48.518;9.050;2023-04-25T05:19:55;3.87;;;3.33;;
14619;SDS011;32125;48.518;9.050;2023-04-25T05:22:21;6.00;;;3.90;;
14619;SDS011;32125;48.518;9.050;2023-04-25T05:24:49;3.97;;;3.30;;
14619;SDS011;32125;48.518;9.050;2023-04-25T05:27:16;5.03;;;3.20;;
14619;SDS011;32125;48.518;9.050;2023-04-25T05:29:42;3.23;;;2.90;;
14619;SDS011;32125;48.518;9.050;2023-04-25T05:32:08;5.70;;;3.47;;
14619;SDS011;32125;48.518;9.050;2023-04-25T05:34:37;3.90;;;3.33;;
14619;SDS011;32125;48.518;9.050;2023-04-25T05:37:03;5.17;;;3.50;;
14619;SDS011;32125;48.518;9.050;2023-04-25T05:39:29;4.40;;;3.67;;
14619;SDS011;32125;48.518;9.050;2023-04-25T05:41:55;5.53;;;3.93;;
14619;SDS011;32125;48.518;9.050;2023-04-25T05:44:21;5.60;;;3.27;;
14619;SDS011;32125;48.518;9.050;2023-04-25T05:46:47;4.87;;;3.17;;
14619;SDS011;32125;48.518;9.050;2023-04-25T05:49:16;6.03;;;3.50;;
14619;SDS011;32125;48.518;9.050;2023-04-25T05:51:44;5.23;;;2.97;;
14619;SDS011;32125;48.518;9.050;2023-04-25T05:54:10;5.80;;;3.47;;
14619;SDS011;32125;48.518;9.050;2023-04-25T05:56:36;3.47;;;3.17;;
14619;SDS011;32125;48.518;9.050;2023-04-25T05:59:02;5.90;;;3.10;;
14619;SDS011;32125;48.518;9.050;2023-04-25T06:01:28;4.03;;;3.03;;
14619;SDS011;32125;48.518;9.050;2023-04-25T06:03:54;4.33;;;2.93;;
14619;SDS011;32125;48.518;9.050;2023-04-25T06:06:21;3.80;;;2.80;;
14619;SDS011;32125;48.518;9.050;2023-04-25T06:08:47;3.43;;;2.67;;
14619;SDS011;32125;48.518;9.050;2023-04-25T06:11:13;2.77;;;2.30;;
14619;SDS011;32125;48.518;9.050;2023-04-25T06:13:42;3.53;;;2.70;;
14619;SDS011;32125;48.518;9.050;2023-04-25T06:16:08;4.47;;;2.40;;
14619;SDS011;32125;48.518;9.050;2023-04-25T06:18:35;3.77;;;2.20;;
14619;SDS011;32125;48.518;9.050;2023-04-25T06:21:04;2.80;;;2.03;;
14619;SDS011;32125;48.518;9.050;2023-04-25T06:23:30;5.93;;;2.30;;
14619;SDS011;32125;48.518;9.050;2023-04-25T06:25:56;2.77;;;2.27;;
14619;SDS011;32125;48.518;9.050;2023-04-25T06:28:22;2.17;;;1.90;;
14619;SDS011;32125;48.518;9.050;2023-04-25T06:30:49;2.60;;;2.20;;
14619;SDS011;32125;48.518;9.050;2023-04-25T06:33:15;2.60;;;2.40;;
14619;SDS011;32125;48.518;9.050;2023-04-25T06:35:41;2.77;;;2.10;;
14619;SDS011;32125;48.518;9.050;2023-04-25T06:38:07;2.77;;;2.27;;
14619;SDS011;32125;48.518;9.050;2023-04-25T06:40:33;2.80;;;2.13;;
14619;SDS011;32125;48.518;9.050;2023-04-25T06:42:59;4.00;;;2.20;;
14619;SDS011;32125;48.518;9.050;2023-04-25T06:45:25;2.73;;;2.03;;
14619;SDS011;32125;48.518;9.050;2023-04-25T06:47:51;2.10;;;1.90;;
14619;SDS011;32125;48.518;9.050;2023-04-25T06:50:17;3.83;;;1.90;;
14619;SDS011;32125;48.518;9.050;2023-04-25T06:52:46;2.40;;;1.90;;
14619;SDS011;32125;48.518;9.050;2023-04-25T06:55:15;2.70;;;2.10;;
14619;SDS011;32125;48.518;9.050;2023-04-25T06:57:41;3.17;;;1.90;;
14619;SDS011;32125;48.518;9.050;2023-04-25T07:00:12;3.47;;;2.10;;
14619;SDS011;32125;48.518;9.050;2023-04-25T07:02:38;2.40;;;2.07;;
14619;SDS011;32125;48.518;9.050;2023-04-25T07:05:05;4.67;;;2.13;;
14619;SDS011;32125;48.518;9.050;2023-04-25T07:07:31;3.60;;;2.43;;
14619;SDS011;32125;48.518;9.050;2023-04-25T07:09:57;8.27;;;2.67;;
14619;SDS011;32125;48.518;9.050;2023-04-25T07:12:25;3.83;;;2.40;;
14619;SDS011;32125;48.518;9.050;2023-04-25T07:14:51;3.17;;;2.50;;
14619;SDS011;32125;48.518;9.050;2023-04-25T07:17:18;4.57;;;2.77;;
14619;SDS011;32125;48.518;9.050;2023-04-25T07:19:46;3.80;;;2.40;;
14619;SDS011;32125;48.518;9.050;2023-04-25T07:22:12;3.03;;;2.30;;
14619;SDS011;32125;48.518;9.050;2023-04-25T07:24:38;4.00;;;2.60;;
14619;SDS011;32125;48.518;9.050;2023-04-25T07:27:05;2.97;;;2.60;;
14619;SDS011;32125;48.518;9.050;2023-04-25T07:29:31;2.90;;;2.60;;
14619;SDS011;32125;48.518;9.050;2023-04-25T07:32:00;3.17;;;2.60;;
14619;SDS011;32125;48.518;9.050;2023-04-25T07:34:26;4.47;;;2.60;;
14619;SDS011;32125;48.518;9.050;2023-04-25T07:36:55;5.00;;;2.90;;
14619;SDS011;32125;48.518;9.050;2023-04-25T07:39:21;4.10;;;3.27;;
14619;SDS011;32125;48.518;9.050;2023-04-25T07:41:50;4.00;;;2.90;;
14619;SDS011;32125;48.518;9.050;2023-04-25T07:44:19;3.60;;;2.70;;
14619;SDS011;32125;48.518;9.050;2023-04-25T07:46:45;6.50;;;3.27;;
14619;SDS011;32125;48.518;9.050;2023-04-25T07:49:11;3.10;;;2.60;;
14619;SDS011;32125;48.518;9.050;2023-04-25T07:51:40;4.33;;;2.63;;
14619;SDS011;32125;48.518;9.050;2023-04-25T07:54:09;2.90;;;2.70;;
14619;SDS011;32125;48.518;9.050;2023-04-25T07:56:37;2.90;;;2.60;;
14619;SDS011;32125;48.518;9.050;2023-04-25T07:59:03;2.60;;;2.40;;
14619;SDS011;32125;48.518;9.050;2023-04-25T08:01:30;3.43;;;2.57;;
14619;SDS011;32125;48.518;9.050;2023-04-25T08:03:56;5.33;;;2.63;;
14619;SDS011;32125;48.518;9.050;2023-04-25T08:06:25;3.70;;;2.60;;
14619;SDS011;32125;48.518;9.050;2023-04-25T08:08:52;2.70;;;2.50;;
14619;SDS011;32125;48.518;9.050;2023-04-25T08:11:18;3.70;;;2.37;;
14619;SDS011;32125;48.518;9.050;2023-04-25T08:13:48;3.80;;;2.67;;
14619;SDS011;32125;48.518;9.050;2023-04-25T08:16:17;3.73;;;2.53;;
14619;SDS011;32125;48.518;9.050;2023-04-25T08:18:43;4.10;;;2.87;;
14619;SDS011;32125;48.518;9.050;2023-04-25T08:21:09;3.00;;;2.70;;
14619;SDS011;32125;48.518;9.050;2023-04-25T08:23:36;3.10;;;2.80;;
14619;SDS011;32125;48.518;9.050;2023-04-25T08:26:05;4.30;;;2.90;;
14619;SDS011;32125;48.518;9.050;2023-04-25T08:28:40;3.17;;;2.83;;
14619;SDS011;32125;48.518;9.050;2023-04-25T08:31:06;5.87;;;3.90;;
14619;SDS011;32125;48.518;9.050;2023-04-25T08:33:34;4.27;;;3.23;;
14619;SDS011;32125;48.518;9.050;2023-04-25T08:36:00;4.93;;;3.90;;
14619;SDS011;32125;48.518;9.050;2023-04-25T08:38:26;3.80;;;3.30;;
14619;SDS011;32125;48.518;9.050;2023-04-25T08:40:52;4.57;;;4.17;;
14619;SDS011;32125;48.518;9.050;2023-04-25T08:43:20;5.67;;;3.77;;
14619;SDS011;32125;48.518;9.050;2023-04-25T08:45:53;4.07;;;3.40;;
14619;SDS011;32125;48.518;9.050;2023-04-25T08:48:19;5.40;;;3.90;;
14619;SDS011;32125;48.518;9.050;2023-04-25T08:50:54;5.10;;;3.73;;
14619;SDS011;32125;48.518;9.050;2023-04-25T08:53:27;4.90;;;3.57;;
14619;SDS011;32125;48.518;9.050;2023-04-25T08:55:54;6.03;;;3.63;;
14619;SDS011;32125;48.518;9.050;2023-04-25T08:58:20;5.77;;;3.90;;
14619;SDS011;32125;48.518;9.050;2023-04-25T09:00:49;3.87;;;3.43;;
14619;SDS011;32125;48.518;9.050;2023-04-25T09:03:15;4.10;;;3.53;;
14619;SDS011;32125;48.518;9.050;2023-04-25T09:05:41;5.30;;;3.27;;
14619;SDS011;32125;48.518;9.050;2023-04-25T09:08:10;4.57;;;3.07;;
14619;SDS011;32125;48.518;9.050;2023-04-25T09:10:36;5.23;;;3.00;;
14619;SDS011;32125;48.518;9.050;2023-04-25T09:13:09;3.03;;;2.80;;
14619;SDS011;32125;48.518;9.050;2023-04-25T09:15:47;4.33;;;3.03;;
14619;SDS011;32125;48.518;9.050;2023-04-25T09:18:25;3.83;;;3.03;;
14619;SDS011;32125;48.518;9.050;2023-04-25T09:20:55;3.63;;;3.23;;
14619;SDS011;32125;48.518;9.050;2023-04-25T09:23:26;3.70;;;3.37;;
14619;SDS011;32125;48.518;9.050;2023-04-25T09:25:52;3.50;;;3.20;;
14619;SDS011;32125;48.518;9.050;2023-04-25T09:28:23;3.93;;;3.50;;
14619;SDS011;32125;48.518;9.050;2023-04-25T09:30:55;5.30;;;4.07;;
14619;SDS011;32125;48.518;9.050;2023-04-25T09:33:29;6.80;;;4.37;;
14619;SDS011;32125;48.518;9.050;2023-04-25T09:36:06;4.93;;;4.33;;
14619;SDS011;32125;48.518;9.050;2023-04-25T09:38:34;7.73;;;4.23;;
14619;SDS011;32125;48.518;9.050;2023-04-25T09:41:06;4.33;;;3.93;;
14619;SDS011;32125;48.518;9.050;2023-04-25T09:43:32;6.40;;;4.50;;
14619;SDS011;32125;48.518;9.050;2023-04-25T09:45:58;6.03;;;4.40;;
14619;SDS011;32125;48.518;9.050;2023-04-25T09:48:25;6.63;;;4.30;;
14619;SDS011;32125;48.518;9.050;2023-04-25T09:53:33;3.50;;;3.20;;
14619;SDS011;32125;48.518;9.050;2023-04-25T09:56:00;4.77;;;3.63;;
14619;SDS011;32125;48.518;9.050;2023-04-25T09:58:29;3.70;;;3.40;;
14619;SDS011;32125;48.518;9.050;2023-04-25T10:00:56;3.00;;;2.80;;
14619;SDS011;32125;48.518;9.050;2023-04-25T10:03:25;3.03;;;2.50;;
14619;SDS011;32125;48.518;9.050;2023-04-25T10:05:54;1.83;;;1.73;;
14619;SDS011;32125;48.518;9.050;2023-04-25T10:08:20;2.50;;;2.30;;
14619;SDS011;32125;48.518;9.050;2023-04-25T10:10:51;1.80;;;1.70;;
14619;SDS011;32125;48.518;9.050;2023-04-25T10:13:17;2.53;;;1.27;;
14619;SDS011;32125;48.518;9.050;2023-04-25T10:15:43;2.00;;;1.57;;
14619;SDS011;32125;48.518;9.050;2023-04-25T10:18:09;1.60;;;1.50;;
14619;SDS011;32125;48.518;9.050;2023-04-25T10:20:38;1.47;;;1.37;;
14619;SDS011;32125;48.518;9.050;2023-04-25T10:23:06;1.40;;;1.30;;
14619;SDS011;32125;48.518;9.050;2023-04-25T10:25:34;1.00;;;1.00;;
14619;SDS011;32125;48.518;9.050;2023-04-25T10:28:00;1.27;;;1.10;;
14619;SDS011;32125;48.518;9.050;2023-04-25T10:30:27;1.20;;;1.10;;
14619;SDS011;32125;48.518;9.050;2023-04-25T10:32:54;1.43;;;1.27;;
14619;SDS011;32125;48.518;9.050;2023-04-25T10:35:29;1.30;;;1.20;;
14619;SDS011;32125;48.518;9.050;2023-04-25T10:40:29;0.80;;;0.80;;
14619;SDS011;32125;48.518;9.050;2023-04-25T10:42:55;1.00;;;1.00;;
14619;SDS011;32125;48.518;9.050;2023-04-25T10:45:21;1.33;;;0.77;;
14619;SDS011;32125;48.518;9.050;2023-04-25T10:47:47;2.63;;;0.77;;
14619;SDS011;32125;48.518;9.050;2023-04-25T10:50:14;0.80;;;0.80;;
14619;SDS011;32125;48.518;9.050;2023-04-25T10:52:43;0.70;;;0.70;;
14619;SDS011;32125;48.518;9.050;2023-04-25T10:55:09;0.50;;;0.50;;
14619;SDS011;32125;48.518;9.050;2023-04-25T10:57:39;1.70;;;1.57;;
14619;SDS011;32125;48.518;9.050;2023-04-25T11:02:36;0.63;;;0.63;;
14619;SDS011;32125;48.518;9.050;2023-04-25T11:05:10;1.20;;;0.50;;
14619;SDS011;32125;48.518;9.050;2023-04-25T11:10:06;0.57;;;0.57;;
14619;SDS011;32125;48.518;9.050;2023-04-25T11:12:32;0.67;;;0.60;;
14619;SDS011;32125;48.518;9.050;2023-04-25T11:15:02;0.70;;;0.70;;
14619;SDS011;32125;48.518;9.050;2023-04-25T11:17:28;0.97;;;0.53;;
14619;SDS011;32125;48.518;9.050;2023-04-25T11:19:55;0.70;;;0.70;;
14619;SDS011;32125;48.518;9.050;2023-04-25T11:22:21;0.80;;;0.77;;
14619;SDS011;32125;48.518;9.050;2023-04-25T11:24:50;0.63;;;0.57;;
14619;SDS011;32125;48.518;9.050;2023-04-25T11:27:16;0.60;;;0.60;;
14619;SDS011;32125;48.518;9.050;2023-04-25T11:29:42;1.00;;;0.90;;
14619;SDS011;32125;48.518;9.050;2023-04-25T11:32:08;0.80;;;0.80;;
14619;SDS011;32125;48.518;9.050;2023-04-25T11:34:35;0.90;;;0.80;;
14619;SDS011;32125;48.518;9.050;2023-04-25T11:37:01;0.60;;;0.60;;
14619;SDS011;32125;48.518;9.050;2023-04-25T11:39:28;0.70;;;0.70;;
14619;SDS011;32125;48.518;9.050;2023-04-25T11:41:54;0.60;;;0.60;;
14619;SDS011;32125;48.518;9.050;2023-04-25T11:44:20;0.83;;;0.70;;
14619;SDS011;32125;48.518;9.050;2023-04-25T11:46:49;0.73;;;0.73;;
14619;SDS011;32125;48.518;9.050;2023-04-25T11:49:15;2.10;;;0.70;;
14619;SDS011;32125;48.518;9.050;2023-04-25T11:51:44;0.50;;;0.50;;
14619;SDS011;32125;48.518;9.050;2023-04-25T11:54:11;0.70;;;0.60;;
14619;SDS011;32125;48.518;9.050;2023-04-25T11:56:40;0.60;;;0.60;;
14619;SDS011;32125;48.518;9.050;2023-04-25T11:59:07;0.73;;;0.70;;
14619;SDS011;32125;48.518;9.050;2023-04-25T12:01:37;0.80;;;0.60;;
14619;SDS011;32125;48.518;9.050;2023-04-25T12:04:13;0.40;;;0.40;;
14619;SDS011;32125;48.518;9.050;2023-04-25T12:06:41;1.60;;;0.60;;
14619;SDS011;32125;48.518;9.050;2023-04-25T12:09:08;0.70;;;0.70;;
14619;SDS011;32125;48.518;9.050;2023-04-25T12:14:08;0.77;;;0.77;;
14619;SDS011;32125;48.518;9.050;2023-04-25T12:16:44;0.67;;;0.67;;
14619;SDS011;32125;48.518;9.050;2023-04-25T12:19:17;0.50;;;0.50;;
14619;SDS011;32125;48.518;9.050;2023-04-25T12:21:43;0.50;;;0.50;;
14619;SDS011;32125;48.518;9.050;2023-04-25T12:26:45;0.60;;;0.60;;
14619;SDS011;32125;48.518;9.050;2023-04-25T12:29:18;0.70;;;0.70;;
14619;SDS011;32125;48.518;9.050;2023-04-25T12:31:48;0.90;;;0.60;;
14619;SDS011;32125;48.518;9.050;2023-04-25T12:34:14;1.00;;;0.77;;
14619;SDS011;32125;48.518;9.050;2023-04-25T12:36:41;0.70;;;0.70;;
14619;SDS011;32125;48.518;9.050;2023-04-25T12:39:13;0.77;;;0.77;;
14619;SDS011;32125;48.518;9.050;2023-04-25T12:41:40;0.60;;;0.60;;
14619;SDS011;32125;48.518;9.050;2023-04-25T12:44:08;0.67;;;0.67;;
14619;SDS011;32125;48.518;9.050;2023-04-25T12:46:35;1.00;;;0.90;;
14619;SDS011;32125;48.518;9.050;2023-04-25T12:49:01;0.90;;;0.90;;
14619;SDS011;32125;48.518;9.050;2023-04-25T12:51:28;0.93;;;0.93;;
14619;SDS011;32125;48.518;9.050;2023-04-25T12:53:54;0.87;;;0.80;;
14619;SDS011;32125;48.518;9.050;2023-04-25T12:58:49;0.80;;;0.80;;
14619;SDS011;32125;48.518;9.050;2023-04-25T13:01:15;0.80;;;0.80;;
14619;SDS011;32125;48.518;9.050;2023-04-25T13:03:41;1.40;;;1.30;;
14619;SDS011;32125;48.518;9.050;2023-04-25T13:06:07;1.00;;;0.90;;
14619;SDS011;32125;48.518;9.050;2023-04-25T13:08:35;3.03;;;1.10;;
14619;SDS011;32125;48.518;9.050;2023-04-25T13:11:03;0.80;;;0.80;;
14619;SDS011;32125;48.518;9.050;2023-04-25T13:13:29;0.60;;;0.60;;
14619;SDS011;32125;48.518;9.050;2023-04-25T13:15:56;0.90;;;0.90;;
14619;SDS011;32125;48.518;9.050;2023-04-25T13:18:22;1.63;;;0.87;;
14619;SDS011;32125;48.518;9.050;2023-04-25T13:20:53;1.10;;;1.00;;
14619;SDS011;32125;48.518;9.050;2023-04-25T13:23:22;1.07;;;1.07;;
14619;SDS011;32125;48.518;9.050;2023-04-25T13:25:53;1.20;;;1.10;;
14619;SDS011;32125;48.518;9.050;2023-04-25T13:28:20;1.37;;;1.20;;
14619;SDS011;32125;48.518;9.050;2023-04-25T13:30:46;1.40;;;1.30;;
14619;SDS011;32125;48.518;9.050;2023-04-25T13:33:13;2.83;;;1.30;;
14619;SDS011;32125;48.518;9.050;2023-04-25T13:35:42;2.77;;;1.70;;
14619;SDS011;32125;48.518;9.050;2023-04-25T13:38:08;1.83;;;1.73;;
14619;SDS011;32125;48.518;9.050;2023-04-25T13:40:36;1.93;;;1.83;;
14619;SDS011;32125;48.518;9.050;2023-04-25T13:43:04;2.00;;;1.90;;
14619;SDS011;32125;48.518;9.050;2023-04-25T13:45:31;2.00;;;1.73;;
14619;SDS011;32125;48.518;9.050;2023-04-25T13:48:00;2.23;;;1.83;;
14619;SDS011;32125;48.518;9.050;2023-04-25T13:50:26;2.30;;;2.10;;
14619;SDS011;32125;48.518;9.050;2023-04-25T13:52:52;2.47;;;2.27;;
14619;SDS011;32125;48.518;9.050;2023-04-25T13:55:18;2.90;;;2.70;;
14619;SDS011;32125;48.518;9.050;2023-04-25T13:57:44;3.37;;;2.93;;
14619;SDS011;32125;48.518;9.050;2023-04-25T14:00:16;3.03;;;2.50;;
14619;SDS011;32125;48.518;9.050;2023-04-25T14:02:42;2.90;;;2.70;;
14619;SDS011;32125;48.518;9.050;2023-04-25T14:05:08;3.10;;;2.80;;
14619;SDS011;32125;48.518;9.050;2023-04-25T14:07:34;3.30;;;3.00;;
14619;SDS011;32125;48.518;9.050;2023-04-25T14:10:00;3.43;;;2.87;;
14619;SDS011;32125;48.518;9.050;2023-04-25T14:12:26;3.80;;;2.90;;
14619;SDS011;32125;48.518;9.050;2023-04-25T14:14:52;3.30;;;3.00;;
14619;SDS011;32125;48.518;9.050;2023-04-25T14:17:21;4.57;;;3.37;;
14619;SDS011;32125;48.518;9.050;2023-04-25T14:19:50;4.93;;;3.60;;
14619;SDS011;32125;48.518;9.050;2023-04-25T14:22:16;3.00;;;2.80;;
14619;SDS011;32125;48.518;9.050;2023-04-25T14:24:42;4.93;;;3.30;;
14619;SDS011;32125;48.518;9.050;2023-04-25T14:27:08;3.93;;;3.53;;
14619;SDS011;32125;48.518;9.050;2023-04-25T14:29:38;4.63;;;3.70;;
14619;SDS011;32125;48.518;9.050;2023-04-25T14:32:05;4.23;;;3.83;;
14619;SDS011;32125;48.518;9.050;2023-04-25T14:34:31;3.60;;;3.30;;
14619;SDS011;32125;48.518;9.050;2023-04-25T14:37:00;4.53;;;4.13;;
14619;SDS011;32125;48.518;9.050;2023-04-25T14:39:26;3.97;;;3.60;;
14619;SDS011;32125;48.518;9.050;2023-04-25T14:41:52;4.30;;;3.90;;
14619;SDS011;32125;48.518;9.050;2023-04-25T14:44:18;4.07;;;3.70;;
14619;SDS011;32125;48.518;9.050;2023-04-25T14:46:46;4.23;;;3.83;;
14619;SDS011;32125;48.518;9.050;2023-04-25T14:49:12;4.50;;;3.63;;
14619;SDS011;32125;48.518;9.050;2023-04-25T14:51:38;4.23;;;3.83;;
14619;SDS011;32125;48.518;9.050;2023-04-25T14:54:04;4.43;;;3.77;;
14619;SDS011;32125;48.518;9.050;2023-04-25T14:56:31;4.07;;;3.50;;
14619;SDS011;32125;48.518;9.050;2023-04-25T14:58:57;4.30;;;3.90;;
14619;SDS011;32125;48.518;9.050;2023-04-25T15:01:25;4.20;;;3.90;;
14619;SDS011;32125;48.518;9.050;2023-04-25T15:03:53;4.70;;;4.00;;
14619;SDS011;32125;48.518;9.050;2023-04-25T15:06:22;5.93;;;4.13;;
14619;SDS011;32125;48.518;9.050;2023-04-25T15:08:51;6.00;;;4.53;;
14619;SDS011;32125;48.518;9.050;2023-04-25T15:11:19;5.17;;;4.67;;
14619;SDS011;32125;48.518;9.050;2023-04-25T15:13:47;5.13;;;4.57;;
14619;SDS011;32125;48.518;9.050;2023-04-25T15:16:13;5.00;;;3.90;;
14619;SDS011;32125;48.518;9.050;2023-04-25T15:18:41;4.87;;;4.37;;
14619;SDS011;32125;48.518;9.050;2023-04-25T15:21:10;4.47;;;4.03;;
14619;SDS011;32125;48.518;9.050;2023-04-25T15:23:36;5.00;;;4.23;;
14619;SDS011;32125;48.518;9.050;2023-04-25T15:26:03;4.83;;;4.17;;
14619;SDS011;32125;48.518;9.050;2023-04-25T15:28:29;5.20;;;4.70;;
14619;SDS011;32125;48.518;9.050;2023-04-25T15:30:56;4.90;;;4.40;;
14619;SDS011;32125;48.518;9.050;2023-04-25T15:33:22;4.90;;;4.50;;
14619;SDS011;32125;48.518;9.050;2023-04-25T15:35:48;4.93;;;4.43;;
14619;SDS011;32125;48.518;9.050;2023-04-25T15:38:17;5.50;;;5.00;;
14619;SDS011;32125;48.518;9.050;2023-04-25T15:40:43;5.53;;;4.37;;
14619;SDS011;32125;48.518;9.050;2023-04-25T15:43:09;4.23;;;3.90;;
14619;SDS011;32125;48.518;9.050;2023-04-25T15:45:39;5.20;;;4.10;;
14619;SDS011;32125;48.518;9.050;2023-04-25T15:48:06;4.53;;;4.03;;